createdAt,value
2023-01-22T00:00:04.967Z,101136.33
2023-01-22T00:05:28.345Z,101139.72
2023-01-22T00:10:32.796Z,101142.20
2023-01-22T00:15:39.227Z,101147.41
2023-01-22T00:20:50.055Z,101154.13
2023-01-22T00:26:11.305Z,101160.10
2023-01-22T00:31:16.648Z,101167.14
2023-01-22T00:36:22.690Z,101174.11
2023-01-22T00:41:26.035Z,101175.98
2023-01-22T00:46:29.784Z,101178.77
2023-01-22T00:51:37.359Z,101174.45
2023-01-22T00:56:40.767Z,101172.83
2023-01-22T01:01:44.409Z,101172.60
2023-01-22T01:06:48.006Z,101173.13
2023-01-22T01:11:51.622Z,101178.84
2023-01-22T01:16:56.788Z,101180.95
2023-01-22T01:22:00.401Z,101184.52
2023-01-22T01:27:04.111Z,101185.59
2023-01-22T01:32:07.535Z,101187.23
2023-01-22T01:37:11.043Z,101192.27
2023-01-22T01:42:14.667Z,101196.46
2023-01-22T01:47:33.944Z,101195.91
2023-01-22T01:52:37.984Z,101201.34
2023-01-22T01:57:42.101Z,101199.63
2023-01-22T02:02:45.929Z,101199.92
2023-01-22T02:07:49.543Z,101208.35
2023-01-22T02:12:56.342Z,101205.55
2023-01-22T02:18:00.064Z,101211.11
2023-01-22T02:23:04.428Z,101219.39
2023-01-22T02:28:07.906Z,101214.16
2023-01-22T02:33:11.638Z,101216.27
2023-01-22T02:38:15.038Z,101218.23
2023-01-22T02:43:18.758Z,101222.63
2023-01-22T02:48:22.382Z,101215.52
2023-01-22T02:53:26.001Z,101220.48
2023-01-22T02:58:29.408Z,101220.16
2023-01-22T03:03:32.823Z,101220.67
2023-01-22T03:08:36.336Z,101219.13
2023-01-22T03:13:58.181Z,101219.67
2023-01-22T03:19:22.593Z,101227.96
2023-01-22T03:24:26.311Z,101226.70
2023-01-22T03:29:29.825Z,101226.03
2023-01-22T03:34:34.467Z,101224.70
2023-01-22T03:39:37.984Z,101223.69
2023-01-22T03:44:41.394Z,101222.84
2023-01-22T03:49:45.010Z,101217.73
2023-01-22T03:54:48.422Z,101218.85
2023-01-22T03:59:51.940Z,101220.59
2023-01-22T04:04:55.355Z,101227.02
2023-01-22T04:09:58.869Z,101226.31
2023-01-22T04:15:02.380Z,101225.86
2023-01-22T04:20:06.713Z,101228.66
2023-01-22T04:25:10.239Z,101236.29
2023-01-22T04:30:14.157Z,101230.48
2023-01-22T04:35:17.777Z,101235.23
2023-01-22T04:40:21.293Z,101239.61
2023-01-22T04:45:24.817Z,101240.35
2023-01-22T04:50:31.237Z,101239.92
2023-01-22T04:55:34.809Z,101247.48
2023-01-22T05:00:38.527Z,101245.17
2023-01-22T05:05:42.047Z,101253.21
2023-01-22T05:10:45.560Z,101261.48
2023-01-22T05:15:49.116Z,101266.41
2023-01-22T05:20:52.695Z,101274.34
2023-01-22T05:25:56.209Z,101283.18
2023-01-22T05:30:59.753Z,101294.27
2023-01-22T05:36:04.057Z,101297.40
2023-01-22T05:41:07.781Z,101302.89
2023-01-22T05:46:11.526Z,101303.96
2023-01-22T05:51:15.058Z,101302.85
2023-01-22T05:56:19.145Z,101309.39
2023-01-22T06:01:22.562Z,101316.29
2023-01-22T06:06:26.083Z,101320.98
2023-01-22T06:11:29.689Z,101334.79
2023-01-22T06:16:33.616Z,101340.61
2023-01-22T06:21:41.055Z,101347.15
2023-01-22T06:26:44.448Z,101350.81
2023-01-22T06:31:48.237Z,101362.52
2023-01-22T06:36:51.773Z,101369.66
2023-01-22T06:41:55.392Z,101373.24
2023-01-22T06:46:58.905Z,101379.95
2023-01-22T06:52:02.318Z,101382.83
2023-01-22T06:57:05.936Z,101392.27
2023-01-22T07:02:17.381Z,101397.06
2023-01-22T07:07:20.860Z,101405.08
2023-01-22T07:12:24.573Z,101414.59
2023-01-22T07:17:28.397Z,101419.32
2023-01-22T07:22:34.882Z,101426.85
2023-01-22T07:27:38.805Z,101431.90
2023-01-22T07:32:43.609Z,101437.29
2023-01-22T07:37:59.834Z,101440.02
2023-01-22T07:43:07.989Z,101444.79
2023-01-22T07:48:12.126Z,101449.09
2023-01-22T07:53:15.534Z,101456.69
2023-01-22T07:58:19.359Z,101469.73
2023-01-22T08:03:24.307Z,101468.51
2023-01-22T08:08:27.826Z,101474.23
2023-01-22T08:13:31.542Z,101475.66
2023-01-22T08:18:36.156Z,101477.15
2023-01-22T08:23:39.594Z,101481.45
2023-01-22T08:28:43.222Z,101485.19
2023-01-22T08:33:46.730Z,101480.94
2023-01-22T08:38:50.553Z,101490.96
2023-01-22T08:43:53.947Z,101501.80
2023-01-22T08:48:57.587Z,101508.48
2023-01-22T08:54:01.212Z,101509.43
2023-01-22T08:59:06.890Z,101506.96
2023-01-22T09:04:11.625Z,101513.08
2023-01-22T09:09:15.234Z,101515.80
2023-01-22T09:14:18.649Z,101517.65
2023-01-22T09:19:22.258Z,101521.39
2023-01-22T09:24:25.685Z,101524.52
2023-01-22T09:29:29.288Z,101533.27
2023-01-22T09:34:33.726Z,101533.20
2023-01-22T09:39:37.236Z,101536.42
2023-01-22T09:44:45.835Z,101532.50
2023-01-22T09:49:58.203Z,101533.55
2023-01-22T09:55:01.721Z,101535.17
2023-01-22T10:00:35.244Z,101543.96
2023-01-22T10:05:44.477Z,101549.13
2023-01-22T10:10:49.008Z,101550.13
2023-01-22T10:15:55.094Z,101550.11
2023-01-22T10:21:04.264Z,101554.51
2023-01-22T10:26:18.263Z,101552.55
2023-01-22T10:31:24.398Z,101548.67
2023-01-22T10:36:30.309Z,101552.72
2023-01-22T10:41:33.870Z,101554.64
2023-01-22T10:46:37.593Z,101551.98
2023-01-22T10:51:45.921Z,101545.98
2023-01-22T10:56:50.555Z,101543.55
2023-01-22T11:02:03.318Z,101547.28
2023-01-22T11:07:13.982Z,101551.63
2023-01-22T11:12:36.130Z,101554.09
2023-01-22T11:17:44.463Z,101554.61
2023-01-22T11:23:10.191Z,101548.01
2023-01-22T11:28:22.003Z,101538.56
2023-01-22T11:33:27.976Z,101529.18
2023-01-22T11:38:55.969Z,101529.87
2023-01-22T11:44:30.508Z,101527.53
2023-01-22T11:49:55.837Z,101527.45
2023-01-22T11:55:18.602Z,101527.27
2023-01-22T12:00:31.463Z,101522.18
2023-01-22T12:06:15.811Z,101522.35
2023-01-22T12:11:31.003Z,101524.25
2023-01-22T12:16:55.916Z,101526.04
2023-01-22T12:22:12.031Z,101536.59
2023-01-22T12:27:44.220Z,101541.82
2023-01-22T12:32:55.103Z,101547.77
2023-01-22T12:38:07.631Z,101551.95
2023-01-22T12:43:11.452Z,101553.20
2023-01-22T12:48:40.057Z,101553.75
2023-01-22T12:53:43.571Z,101554.61
2023-01-22T12:59:00.854Z,101556.52
2023-01-22T13:04:08.025Z,101560.71
2023-01-22T13:09:40.959Z,101567.55
2023-01-22T13:14:44.530Z,101565.01
2023-01-22T13:19:50.622Z,101564.52
2023-01-22T13:24:57.077Z,101563.50
2023-01-22T13:30:17.194Z,101564.89
2023-01-22T13:35:20.822Z,101564.52
2023-01-22T13:40:27.841Z,101565.38
2023-01-22T13:45:34.291Z,101569.08
2023-01-22T13:50:38.629Z,101574.88
2023-01-22T13:55:41.838Z,101571.88
2023-01-22T14:00:52.785Z,101574.85
2023-01-22T14:06:06.902Z,101577.41
2023-01-22T14:11:10.307Z,101582.73
2023-01-22T14:16:14.194Z,101585.05
2023-01-22T14:21:17.542Z,101590.66
2023-01-22T14:26:21.261Z,101594.59
2023-01-22T14:31:24.791Z,101595.38
2023-01-22T14:36:28.191Z,101593.20
2023-01-22T14:41:31.708Z,101598.20
2023-01-22T14:46:37.065Z,101601.05
2023-01-22T14:51:40.479Z,101602.97
2023-01-22T14:56:43.994Z,101606.28
2023-01-22T15:01:47.560Z,101605.80
2023-01-22T15:06:51.024Z,101611.31
2023-01-22T15:11:54.498Z,101610.98
2023-01-22T15:16:58.057Z,101614.30
2023-01-22T15:22:03.845Z,101623.17
2023-01-22T15:27:08.068Z,101632.55
2023-01-22T15:32:11.984Z,101634.89
2023-01-22T15:37:15.399Z,101640.09
2023-01-22T15:42:19.015Z,101645.88
2023-01-22T15:47:22.527Z,101649.60
2023-01-22T15:52:25.947Z,101653.69
2023-01-22T15:57:29.454Z,101657.41
2023-01-22T16:02:33.042Z,101659.26
2023-01-22T16:07:36.796Z,101665.95
2023-01-22T16:12:40.312Z,101669.42
2023-01-22T16:17:43.722Z,101672.15
2023-01-22T16:22:47.564Z,101676.59
2023-01-22T16:27:51.059Z,101673.29
2023-01-22T16:32:54.480Z,101674.33
2023-01-22T16:37:57.917Z,101677.53
2023-01-22T16:43:01.683Z,101683.19
2023-01-22T16:48:05.535Z,101689.23
2023-01-22T16:53:09.048Z,101694.48
2023-01-22T16:58:12.461Z,101690.98
2023-01-22T17:03:16.898Z,101697.33
2023-01-22T17:08:20.538Z,101701.98
2023-01-22T17:13:24.029Z,101708.39
2023-01-22T17:18:27.657Z,101711.15
2023-01-22T17:23:31.690Z,101717.48
2023-01-22T17:28:37.677Z,101717.81
2023-01-22T17:33:42.107Z,101722.27
2023-01-22T17:38:46.010Z,101724.33
2023-01-22T17:43:52.605Z,101727.58
2023-01-22T17:48:56.632Z,101728.21
2023-01-22T17:54:02.325Z,101732.52
2023-01-22T17:59:07.043Z,101731.16
2023-01-22T18:04:12.429Z,101736.45
2023-01-22T18:09:16.424Z,101737.34
2023-01-22T18:14:23.213Z,101744.08
2023-01-22T18:19:27.442Z,101748.70
2023-01-22T18:24:33.419Z,101753.30
2023-01-22T18:29:36.935Z,101759.52
2023-01-22T18:34:40.450Z,101759.64
2023-01-22T18:39:44.067Z,101758.13
2023-01-22T18:44:47.789Z,101755.45
2023-01-22T18:49:51.613Z,101759.45
2023-01-22T18:54:55.129Z,101766.29
2023-01-22T18:59:58.646Z,101767.55
2023-01-22T19:05:02.401Z,101778.11
2023-01-22T19:10:08.881Z,101784.90
2023-01-22T19:15:13.493Z,101790.34
2023-01-22T19:20:18.756Z,101790.14
2023-01-22T19:25:22.581Z,101793.23
2023-01-22T19:30:26.806Z,101792.64
2023-01-22T19:35:30.943Z,101794.49
2023-01-22T19:40:35.165Z,101796.39
2023-01-22T19:45:39.320Z,101798.04
2023-01-22T19:50:43.124Z,101798.59
2023-01-22T19:55:48.076Z,101800.18
2023-01-22T20:00:55.054Z,101801.33
2023-01-22T20:05:58.884Z,101802.95
2023-01-22T20:11:05.107Z,101804.58
2023-01-22T20:16:18.310Z,101799.84
2023-01-22T20:21:23.463Z,101794.71
2023-01-22T20:26:26.976Z,101795.20
2023-01-22T20:31:30.654Z,101796.98
2023-01-22T20:36:34.624Z,101801.87
2023-01-22T20:41:38.033Z,101797.21
2023-01-22T20:46:44.639Z,101797.45
2023-01-22T20:51:48.139Z,101796.97
2023-01-22T20:56:51.657Z,101798.88
2023-01-22T21:01:55.067Z,101802.14
2023-01-22T21:06:58.897Z,101805.13
2023-01-22T21:12:02.420Z,101805.29
2023-01-22T21:17:05.920Z,101805.10
2023-01-22T21:22:09.335Z,101803.40
2023-01-22T21:27:12.949Z,101799.63
2023-01-22T21:32:17.188Z,101807.86
2023-01-22T21:37:20.493Z,101811.95
2023-01-22T21:42:42.748Z,101805.95
2023-01-22T21:47:47.582Z,101813.27
2023-01-22T21:52:54.615Z,101817.43
2023-01-22T21:57:58.105Z,101822.73
2023-01-22T22:03:01.621Z,101828.67
2023-01-22T22:08:05.650Z,101829.96
2023-01-22T22:13:09.062Z,101828.31
2023-01-22T22:18:13.197Z,101834.19
2023-01-22T22:23:17.119Z,101835.46
2023-01-22T22:28:20.533Z,101834.73
2023-01-22T22:33:24.048Z,101837.08
2023-01-22T22:38:28.175Z,101839.91
2023-01-22T22:43:33.306Z,101844.88
2023-01-22T22:48:37.263Z,101850.95
2023-01-22T22:53:41.796Z,101853.09
2023-01-22T22:58:45.209Z,101847.25
2023-01-22T23:03:49.751Z,101852.83
2023-01-22T23:08:56.362Z,101853.10
2023-01-22T23:14:04.378Z,101851.48
2023-01-22T23:19:13.406Z,101851.84
2023-01-22T23:24:16.815Z,101855.39
2023-01-22T23:29:23.060Z,101861.76
2023-01-22T23:34:26.618Z,101865.64
2023-01-22T23:39:30.125Z,101865.02
2023-01-22T23:44:33.539Z,101873.18
2023-01-22T23:49:37.670Z,101867.50
2023-01-22T23:54:41.184Z,101874.69
2023-01-22T23:59:45.112Z,101876.45
